Time;durP1;ratioP1;P1;durP2;ratioP2;P2;SDS_P1;SDS_P2;PMS_P1;PMS_P2;Temp;Humidity;BMP_temperature;BMP_pressure;BME280_temperature;BME280_humidity;BME280_pressure;Samples;Min_cycle;Max_cycle;Signal;HPM_P1;HPM_P2
2021/05/20 00:01:31;;;;;;;19.40;8.17;;;;;;;;;;5019906;28;20260;-65
2021/05/20 00:03:56;;;;;;;13.17;8.20;;;;;;;;;;5024718;28;20699;-66
2021/05/20 00:06:22;;;;;;;17.75;8.52;;;;;;;;;;5029645;23;20398;-88
2021/05/20 00:08:47;;;;;;;11.80;7.15;;;;;;;;;;5014081;28;20021;-88
2021/05/20 00:11:12;;;;;;;13.97;8.20;;;;;;;;;;5014291;28;20109;-89
2021/05/20 00:13:37;;;;;;;12.80;8.35;;;;;;;;;;5031930;28;20264;-89
2021/05/20 00:16:03;;;;;;;11.20;7.20;;;;;;;;;;4997321;28;20499;-89
2021/05/20 00:18:28;;;;;;;17.75;7.85;;;;;;;;;;5003308;28;20029;-88
2021/05/20 00:20:53;;;;;;;12.30;8.63;;;;;;;;;;5011174;28;20032;-88
2021/05/20 00:23:19;;;;;;;13.30;7.30;;;;;;;;;;5010752;28;20034;-88
2021/05/20 00:25:44;;;;;;;15.37;8.60;;;;;;;;;;5009908;28;20017;-88
2021/05/20 00:28:09;;;;;;;15.07;8.27;;;;;;;;;;5010043;28;20268;-88
2021/05/20 00:30:34;;;;;;;13.35;7.75;;;;;;;;;;5010085;28;20028;-88
2021/05/20 00:33:00;;;;;;;16.50;8.25;;;;;;;;;;5010236;28;20028;-88
2021/05/20 00:35:25;;;;;;;15.05;8.45;;;;;;;;;;5010048;28;20037;-88
2021/05/20 00:37:50;;;;;;;14.68;8.65;;;;;;;;;;5011884;28;20049;-88
2021/05/20 00:40:16;;;;;;;28.13;9.68;;;;;;;;;;5014182;28;20481;-88
2021/05/20 00:42:45;;;;;;;19.48;9.25;;;;;;;;;;5013854;28;20128;-88
2021/05/20 00:45:11;;;;;;;11.85;7.25;;;;;;;;;;5030439;28;20083;-88
2021/05/20 00:47:36;;;;;;;12.05;7.55;;;;;;;;;;5031063;28;20018;-88
2021/05/20 00:50:04;;;;;;;12.38;7.82;;;;;;;;;;5013717;28;20116;-88
2021/05/20 00:52:29;;;;;;;16.77;8.48;;;;;;;;;;5031865;28;20021;-88
2021/05/20 00:54:55;;;;;;;15.45;8.80;;;;;;;;;;5014177;28;20485;-89
2021/05/20 00:57:21;;;;;;;15.90;8.93;;;;;;;;;;5013398;28;20032;-89
2021/05/20 00:59:46;;;;;;;19.67;8.70;;;;;;;;;;5026749;22;20056;-68
2021/05/20 01:02:12;;;;;;;13.20;8.77;;;;;;;;;;5029082;28;20366;-66
2021/05/20 01:04:37;;;;;;;16.45;9.27;;;;;;;;;;5032611;28;20021;-66
2021/05/20 01:07:02;;;;;;;12.75;8.80;;;;;;;;;;5032129;28;20013;-66
2021/05/20 01:09:27;;;;;;;14.30;9.35;;;;;;;;;;5032511;28;20021;-65
2021/05/20 01:11:53;;;;;;;25.73;11.17;;;;;;;;;;5032834;28;20061;-66
2021/05/20 01:14:18;;;;;;;21.40;9.73;;;;;;;;;;5049131;23;20270;-88
2021/05/20 01:16:45;;;;;;;19.75;9.48;;;;;;;;;;5013821;28;20025;-88
2021/05/20 01:19:11;;;;;;;20.58;9.55;;;;;;;;;;5015187;28;20049;-88
2021/05/20 01:21:36;;;;;;;19.98;9.68;;;;;;;;;;5014561;28;20055;-88
2021/05/20 01:24:04;;;;;;;16.23;9.75;;;;;;;;;;5015235;28;20513;-88
2021/05/20 01:26:30;;;;;;;16.95;9.52;;;;;;;;;;5014552;28;20021;-88
2021/05/20 01:28:55;;;;;;;20.33;10.02;;;;;;;;;;5032820;28;20477;-88
2021/05/20 01:31:24;;;;;;;17.85;9.80;;;;;;;;;;5014225;28;20025;-86
2021/05/20 01:33:49;;;;;;;17.33;11.30;;;;;;;;;;5015910;28;20017;-88
2021/05/20 01:36:22;;;;;;;16.45;10.95;;;;;;;;;;5015792;28;20025;-88
2021/05/20 01:38:48;;;;;;;21.77;11.68;;;;;;;;;;5015415;28;20036;-88
2021/05/20 01:41:13;;;;;;;26.02;13.57;;;;;;;;;;5033485;28;20017;-86
2021/05/20 01:43:44;;;;;;;18.33;9.32;;;;;;;;;;5015098;28;20064;-88
2021/05/20 01:46:16;;;;;;;17.88;9.88;;;;;;;;;;5014455;28;20025;-88
2021/05/20 01:48:45;;;;;;;18.38;9.48;;;;;;;;;;5014071;28;20028;-88
2021/05/20 01:51:24;;;;;;;16.35;9.63;;;;;;;;;;5014353;28;20021;-88
2021/05/20 01:53:58;;;;;;;16.77;9.35;;;;;;;;;;5005428;28;20108;-88
2021/05/20 01:56:24;;;;;;;25.52;8.60;;;;;;;;;;5031863;28;20636;-88
2021/05/20 01:58:53;;;;;;;15.32;8.48;;;;;;;;;;5013319;28;20044;-87
2021/05/20 02:01:18;;;;;;;21.08;9.18;;;;;;;;;;5013980;28;20036;-87
2021/05/20 02:03:44;;;;;;;12.02;7.78;;;;;;;;;;5030320;28;20021;-87
2021/05/20 02:06:09;;;;;;;19.20;8.85;;;;;;;;;;5013245;28;20044;-86
2021/05/20 02:08:35;;;;;;;17.60;8.98;;;;;;;;;;5031556;28;20021;-88
2021/05/20 02:11:04;;;;;;;16.55;8.90;;;;;;;;;;5013433;28;20033;-88
2021/05/20 02:13:30;;;;;;;18.63;9.70;;;;;;;;;;5014353;28;20036;-87
2021/05/20 02:15:58;;;;;;;15.85;9.95;;;;;;;;;;5013548;28;20092;-86
2021/05/20 02:18:32;;;;;;;18.42;10.48;;;;;;;;;;5014202;28;20056;-87
2021/05/20 02:21:01;;;;;;;17.25;9.70;;;;;;;;;;5013790;28;20026;-87
2021/05/20 02:23:33;;;;;;;18.63;10.65;;;;;;;;;;5014210;28;20503;-85
2021/05/20 02:25:58;;;;;;;22.27;11.13;;;;;;;;;;5012525;28;20030;-87
2021/05/20 02:28:23;;;;;;;18.80;11.10;;;;;;;;;;5031694;28;20025;-88
2021/05/20 02:30:49;;;;;;;25.55;11.80;;;;;;;;;;5013439;28;20026;-86
2021/05/20 02:33:17;;;;;;;19.40;11.77;;;;;;;;;;5013262;28;20017;-88
2021/05/20 02:35:42;;;;;;;22.85;11.80;;;;;;;;;;5013277;28;20025;-87
2021/05/20 02:38:08;;;;;;;28.63;13.73;;;;;;;;;;5030277;28;20022;-87
2021/05/20 02:40:42;;;;;;;28.88;15.45;;;;;;;;;;5012914;28;20026;-86
2021/05/20 02:43:10;;;;;;;29.35;17.08;;;;;;;;;;5031143;28;20067;-87
2021/05/20 02:45:35;;;;;;;32.08;15.95;;;;;;;;;;5012152;28;20501;-87
2021/05/20 02:48:01;;;;;;;27.73;15.48;;;;;;;;;;5013027;28;20120;-87
2021/05/20 02:50:29;;;;;;;26.08;15.02;;;;;;;;;;5032360;28;20387;-87
2021/05/20 02:52:54;;;;;;;29.48;16.55;;;;;;;;;;5016244;28;20025;-87
2021/05/20 02:55:21;;;;;;;28.33;16.30;;;;;;;;;;5014289;28;20033;-87
2021/05/20 02:57:53;;;;;;;29.15;16.17;;;;;;;;;;5012900;28;20021;-87
2021/05/20 03:00:19;;;;;;;37.63;18.13;;;;;;;;;;5030012;28;20024;-86
2021/05/20 03:02:46;;;;;;;34.10;17.98;;;;;;;;;;5030708;28;20021;-85
2021/05/20 03:05:18;;;;;;;32.33;18.45;;;;;;;;;;5012599;28;20030;-87
2021/05/20 03:07:43;;;;;;;39.38;20.65;;;;;;;;;;5013346;28;20026;-87
2021/05/20 03:10:12;;;;;;;39.72;21.25;;;;;;;;;;5012375;28;20114;-87
2021/05/20 03:12:41;;;;;;;39.83;21.30;;;;;;;;;;5030159;28;20025;-87
2021/05/20 03:15:06;;;;;;;37.00;20.50;;;;;;;;;;5031830;28;20096;-87
2021/05/20 03:17:33;;;;;;;37.40;21.17;;;;;;;;;;5011661;28;20029;-86
2021/05/20 03:19:58;;;;;;;39.90;21.48;;;;;;;;;;5032722;28;20049;-87
2021/05/20 03:22:30;;;;;;;40.03;23.27;;;;;;;;;;5012796;28;20055;-87
2021/05/20 03:24:58;;;;;;;41.50;22.83;;;;;;;;;;5012626;28;20021;-87
2021/05/20 03:27:24;;;;;;;40.92;22.40;;;;;;;;;;5029313;28;20096;-86
2021/05/20 03:29:49;;;;;;;40.25;21.77;;;;;;;;;;5031963;28;20457;-86
2021/05/20 03:32:26;;;;;;;38.72;22.77;;;;;;;;;;5043050;28;20017;-84
2021/05/20 03:34:51;;;;;;;35.78;21.88;;;;;;;;;;5011837;28;20541;-86
2021/05/20 03:37:17;;;;;;;45.00;21.88;;;;;;;;;;5014009;28;20128;-85
2021/05/20 03:39:42;;;;;;;39.45;22.55;;;;;;;;;;5012750;28;20025;-87
2021/05/20 03:42:10;;;;;;;40.65;23.02;;;;;;;;;;5012370;28;20021;-85
2021/05/20 03:44:35;;;;;;;40.50;22.15;;;;;;;;;;5030031;28;20029;-87
2021/05/20 03:47:00;;;;;;;48.17;24.20;;;;;;;;;;5011469;28;20030;-85
2021/05/20 03:49:28;;;;;;;37.80;22.83;;;;;;;;;;5030439;28;20109;-87
2021/05/20 03:51:54;;;;;;;45.17;24.95;;;;;;;;;;5012233;28;20032;-86
2021/05/20 03:54:20;;;;;;;40.22;24.00;;;;;;;;;;5013184;28;20073;-87
2021/05/20 03:56:54;;;;;;;41.63;24.00;;;;;;;;;;5012231;28;20024;-86
2021/05/20 03:59:19;;;;;;;42.30;24.27;;;;;;;;;;5012300;28;20389;-86
2021/05/20 04:01:47;;;;;;;50.35;26.10;;;;;;;;;;5031615;28;20013;-86
2021/05/20 04:04:14;;;;;;;44.00;26.10;;;;;;;;;;5029831;28;20423;-88
2021/05/20 04:06:39;;;;;;;51.72;29.00;;;;;;;;;;5011684;28;20025;-86
2021/05/20 04:09:05;;;;;;;59.45;31.42;;;;;;;;;;5012574;28;20014;-86
2021/05/20 04:11:30;;;;;;;65.32;32.00;;;;;;;;;;5013279;28;20025;-85
2021/05/20 04:13:56;;;;;;;77.50;38.33;;;;;;;;;;5016584;28;20025;-86
2021/05/20 04:16:24;;;;;;;79.05;38.20;;;;;;;;;;5014823;28;20084;-86
2021/05/20 04:18:50;;;;;;;88.43;42.08;;;;;;;;;;5016765;28;20032;-86
2021/05/20 04:21:18;;;;;;;82.85;40.03;;;;;;;;;;5016429;28;20029;-86
2021/05/20 04:23:44;;;;;;;93.57;45.72;;;;;;;;;;5017534;28;20112;-85
2021/05/20 04:26:19;;;;;;;97.18;46.40;;;;;;;;;;5036174;28;20494;-86
2021/05/20 04:28:45;;;;;;;107.28;47.55;;;;;;;;;;5016128;28;20028;-86
2021/05/20 04:31:13;;;;;;;98.05;46.25;;;;;;;;;;5015716;28;20017;-86
2021/05/20 04:33:38;;;;;;;106.43;46.28;;;;;;;;;;5015676;28;20447;-86
2021/05/20 04:36:06;;;;;;;106.82;47.78;;;;;;;;;;5017154;28;20017;-86
2021/05/20 04:38:32;;;;;;;102.90;47.60;;;;;;;;;;5015411;28;20032;-85
2021/05/20 04:40:57;;;;;;;103.45;49.13;;;;;;;;;;5014722;28;20029;-86
2021/05/20 04:43:36;;;;;;;101.90;48.08;;;;;;;;;;5015386;28;20088;-85
2021/05/20 04:46:01;;;;;;;104.47;49.08;;;;;;;;;;5032603;28;20063;-85
2021/05/20 04:48:31;;;;;;;114.45;52.00;;;;;;;;;;5015489;28;20026;-85
2021/05/20 04:51:01;;;;;;;109.40;50.90;;;;;;;;;;5015654;28;20028;-86
2021/05/20 04:53:26;;;;;;;109.70;51.27;;;;;;;;;;5015208;28;20033;-86
2021/05/20 04:55:52;;;;;;;106.45;51.35;;;;;;;;;;5033323;28;20071;-85
2021/05/20 04:58:17;;;;;;;113.50;53.00;;;;;;;;;;5015881;28;20497;-87
2021/05/20 05:00:47;;;;;;;128.52;60.17;;;;;;;;;;5015261;28;20103;-86
2021/05/20 05:03:12;;;;;;;128.30;59.05;;;;;;;;;;5015455;28;20021;-86
2021/05/20 05:05:38;;;;;;;117.05;53.15;;;;;;;;;;5032933;28;20029;-86
2021/05/20 05:08:03;;;;;;;114.70;52.10;;;;;;;;;;5032032;28;20021;-86
2021/05/20 05:10:28;;;;;;;115.60;55.17;;;;;;;;;;5033360;28;20055;-84
2021/05/20 05:12:54;;;;;;;105.13;49.95;;;;;;;;;;5015157;28;20021;-85
2021/05/20 05:15:24;;;;;;;108.78;51.53;;;;;;;;;;5014511;28;20033;-85
2021/05/20 05:17:50;;;;;;;110.03;51.55;;;;;;;;;;5014669;28;20423;-86
2021/05/20 05:20:15;;;;;;;108.65;50.75;;;;;;;;;;5013600;28;20025;-85
2021/05/20 05:22:41;;;;;;;108.53;51.95;;;;;;;;;;5013634;28;20026;-86
2021/05/20 05:25:06;;;;;;;115.07;51.55;;;;;;;;;;5032304;28;20028;-84
2021/05/20 05:27:31;;;;;;;107.88;50.33;;;;;;;;;;5014019;28;20024;-85
2021/05/20 05:30:20;;;;;;;116.10;53.00;;;;;;;;;;5027297;28;20033;-85
2021/05/20 05:33:45;;;;;;;;;;;;;;;;;;;;;
2021/05/20 05:36:34;;;;;;;119.40;54.55;;;;;;;;;;4948858;29;20034;-84
2021/05/20 05:45:22;;;;;;;98.47;49.42;;;;;;;;;;4880949;29;20183;-85
2021/05/20 05:47:56;;;;;;;96.18;46.78;;;;;;;;;;4975638;28;20077;-84
2021/05/20 05:50:30;;;;;;;93.72;47.35;;;;;;;;;;4980509;28;20034;-85
2021/05/20 05:52:55;;;;;;;98.25;48.80;;;;;;;;;;5002792;28;20026;-83
2021/05/20 05:55:20;;;;;;;98.00;48.67;;;;;;;;;;5012017;28;20470;-85
2021/05/20 05:57:48;;;;;;;110.05;53.78;;;;;;;;;;5027925;28;20020;-85
2021/05/20 06:00:16;;;;;;;103.72;50.05;;;;;;;;;;5031707;28;20032;-85
2021/05/20 06:02:46;;;;;;;105.13;48.85;;;;;;;;;;5033552;28;20099;-85
2021/05/20 06:05:23;;;;;;;98.60;48.88;;;;;;;;;;5037785;28;20030;-85
2021/05/20 06:07:48;;;;;;;97.97;49.53;;;;;;;;;;5032014;28;20505;-82
2021/05/20 06:10:14;;;;;;;89.63;45.17;;;;;;;;;;5030161;28;20028;-85
2021/05/20 06:12:39;;;;;;;97.60;48.20;;;;;;;;;;5013185;28;20107;-83
2021/05/20 06:15:05;;;;;;;105.32;50.67;;;;;;;;;;5017377;28;20283;-84
2021/05/20 06:17:31;;;;;;;103.30;52.97;;;;;;;;;;5012709;28;20025;-84
2021/05/20 06:19:57;;;;;;;95.95;50.47;;;;;;;;;;5011449;28;20021;-84
2021/05/20 06:22:22;;;;;;;87.63;45.88;;;;;;;;;;5012802;28;20021;-83
2021/05/20 06:24:47;;;;;;;100.90;48.40;;;;;;;;;;5012646;28;20098;-84
2021/05/20 06:27:13;;;;;;;99.85;51.13;;;;;;;;;;5016969;28;20022;-84
2021/05/20 06:29:47;;;;;;;90.90;47.10;;;;;;;;;;5018126;28;20105;-85
2021/05/20 06:32:12;;;;;;;112.55;52.85;;;;;;;;;;5030690;28;20060;-85
2021/05/20 06:34:37;;;;;;;111.97;53.35;;;;;;;;;;5012655;28;20052;-85
2021/05/20 06:37:03;;;;;;;116.45;54.95;;;;;;;;;;5013395;28;20477;-84
2021/05/20 06:39:29;;;;;;;115.10;55.53;;;;;;;;;;5013903;28;20052;-85
2021/05/20 06:41:55;;;;;;;129.52;62.10;;;;;;;;;;5012943;28;20116;-84
2021/05/20 06:44:21;;;;;;;117.07;60.47;;;;;;;;;;5012574;28;20087;-84
2021/05/20 06:46:46;;;;;;;116.85;56.03;;;;;;;;;;5012444;28;20017;-83
2021/05/20 06:49:11;;;;;;;103.15;48.42;;;;;;;;;;5012678;28;20036;-85
2021/05/20 06:51:36;;;;;;;93.13;46.65;;;;;;;;;;5013346;28;20021;-83
2021/05/20 06:54:02;;;;;;;92.63;49.92;;;;;;;;;;5032757;28;20025;-85
2021/05/20 06:56:29;;;;;;;102.15;52.00;;;;;;;;;;5034475;28;20025;-85
2021/05/20 07:01:44;;;;;;;97.70;48.13;;;;;;;;;;5036018;23;20470;-63
2021/05/20 07:04:09;;;;;;;106.63;48.65;;;;;;;;;;5027367;28;20017;-63
2021/05/20 07:06:34;;;;;;;98.88;46.20;;;;;;;;;;5014082;28;20035;-63
2021/05/20 07:09:00;;;;;;;85.67;43.10;;;;;;;;;;5010485;28;20404;-62
2021/05/20 07:11:25;;;;;;;92.45;45.97;;;;;;;;;;5010521;28;20257;-63
2021/05/20 07:13:50;;;;;;;89.10;44.10;;;;;;;;;;5010369;28;20029;-63
2021/05/20 07:16:15;;;;;;;90.97;45.78;;;;;;;;;;5035814;23;20315;-64
2021/05/20 07:18:40;;;;;;;101.93;48.73;;;;;;;;;;5030469;28;20401;-64
2021/05/20 07:21:05;;;;;;;89.47;45.23;;;;;;;;;;5030766;28;20267;-64
2021/05/20 07:23:31;;;;;;;97.40;48.07;;;;;;;;;;5030130;28;20310;-64
2021/05/20 07:25:56;;;;;;;114.57;50.28;;;;;;;;;;5029822;28;20322;-64
2021/05/20 07:28:22;;;;;;;102.43;46.97;;;;;;;;;;5030360;28;20036;-63
2021/05/20 07:30:47;;;;;;;100.38;48.03;;;;;;;;;;5030194;28;20260;-63
2021/05/20 07:33:13;;;;;;;102.13;47.45;;;;;;;;;;5030356;28;20359;-64
2021/05/20 07:35:38;;;;;;;96.40;46.35;;;;;;;;;;5030401;28;20100;-62
2021/05/20 07:38:03;;;;;;;92.80;46.13;;;;;;;;;;5029397;28;20406;-62
2021/05/20 07:40:29;;;;;;;112.03;48.53;;;;;;;;;;5030273;28;20114;-65
2021/05/20 07:42:54;;;;;;;104.40;46.25;;;;;;;;;;5029437;28;20315;-62
2021/05/20 07:45:19;;;;;;;99.15;47.55;;;;;;;;;;5029869;28;20049;-63
2021/05/20 07:47:46;;;;;;;101.28;49.75;;;;;;;;;;5029908;28;20100;-63
2021/05/20 07:50:11;;;;;;;87.05;41.90;;;;;;;;;;5030028;28;20493;-62
2021/05/20 07:52:37;;;;;;;72.78;40.80;;;;;;;;;;5028116;28;20041;-64
2021/05/20 07:55:02;;;;;;;108.88;42.45;;;;;;;;;;5028936;28;20119;-63
2021/05/20 07:57:27;;;;;;;81.57;41.08;;;;;;;;;;5029689;28;20017;-62
2021/05/20 07:59:53;;;;;;;80.15;41.42;;;;;;;;;;5029792;28;20076;-63
2021/05/20 08:04:52;;;;;;;74.82;40.15;;;;;;;;;;5029802;28;20026;-62
2021/05/20 08:07:28;;;;;;;75.90;39.53;;;;;;;;;;5029172;28;20457;-62
2021/05/20 08:12:31;;;;;;;77.57;42.28;;;;;;;;;;5029978;28;20053;-63
2021/05/20 08:14:56;;;;;;;74.60;39.65;;;;;;;;;;5029229;28;20145;-63
2021/05/20 08:17:21;;;;;;;76.13;36.22;;;;;;;;;;5028782;28;20033;-63
2021/05/20 08:19:47;;;;;;;70.43;37.58;;;;;;;;;;5029075;28;20034;-63
2021/05/20 08:22:12;;;;;;;61.60;26.10;;;;;;;;;;5029421;28;20101;-65
2021/05/20 08:24:37;;;;;;;63.23;29.20;;;;;;;;;;5029286;28;20017;-64
2021/05/20 08:27:02;;;;;;;68.28;34.10;;;;;;;;;;5028695;28;20696;-64
2021/05/20 08:29:29;;;;;;;51.85;26.65;;;;;;;;;;5029062;28;20223;-64
2021/05/20 08:31:54;;;;;;;53.65;30.50;;;;;;;;;;5029855;28;20482;-64
2021/05/20 08:34:19;;;;;;;56.67;33.30;;;;;;;;;;5029214;28;20038;-63
2021/05/20 08:36:45;;;;;;;51.65;31.05;;;;;;;;;;5029297;28;20083;-64
2021/05/20 08:39:10;;;;;;;61.15;31.92;;;;;;;;;;5029987;28;20052;-64
2021/05/20 08:41:35;;;;;;;52.75;30.33;;;;;;;;;;5029778;28;20528;-65
2021/05/20 08:44:07;;;;;;;55.90;32.15;;;;;;;;;;5029530;28;20026;-64
2021/05/20 08:46:32;;;;;;;53.30;29.58;;;;;;;;;;5028728;28;20068;-63
2021/05/20 08:48:57;;;;;;;48.77;27.97;;;;;;;;;;5029470;28;20033;-64
2021/05/20 08:51:23;;;;;;;54.50;31.02;;;;;;;;;;5029235;28;20325;-64
2021/05/20 08:53:48;;;;;;;52.20;31.00;;;;;;;;;;5029566;28;20029;-65
2021/05/20 08:56:13;;;;;;;55.03;31.05;;;;;;;;;;5027942;28;20018;-63
2021/05/20 08:58:38;;;;;;;42.53;25.58;;;;;;;;;;5024628;28;20040;-64
2021/05/20 09:01:04;;;;;;;41.42;23.05;;;;;;;;;;5030652;28;20041;-64
2021/05/20 09:03:29;;;;;;;41.55;24.83;;;;;;;;;;5033066;28;20048;-64
2021/05/20 09:05:57;;;;;;;29.43;17.57;;;;;;;;;;5032234;28;20033;-64
2021/05/20 09:08:30;;;;;;;27.42;17.38;;;;;;;;;;5032307;28;20260;-64
2021/05/20 09:10:55;;;;;;;21.30;14.10;;;;;;;;;;5032706;28;20064;-62
2021/05/20 09:13:20;;;;;;;21.35;13.45;;;;;;;;;;5033185;28;20048;-64
2021/05/20 09:15:46;;;;;;;23.75;15.30;;;;;;;;;;5032649;28;20025;-64
2021/05/20 09:18:11;;;;;;;21.13;13.88;;;;;;;;;;5033004;28;20057;-64
2021/05/20 09:20:38;;;;;;;23.40;15.15;;;;;;;;;;5032818;28;20489;-66
2021/05/20 09:23:05;;;;;;;20.05;13.27;;;;;;;;;;5033538;28;20393;-64
2021/05/20 09:25:32;;;;;;;43.55;20.55;;;;;;;;;;5033342;28;20373;-66
2021/05/20 09:27:57;;;;;;;31.02;17.85;;;;;;;;;;5033118;28;20017;-65
2021/05/20 09:30:26;;;;;;;34.10;20.83;;;;;;;;;;5033369;28;20024;-65
2021/05/20 09:32:54;;;;;;;33.85;19.67;;;;;;;;;;5012945;28;20109;-64
2021/05/20 09:35:21;;;;;;;30.08;19.77;;;;;;;;;;5020408;28;20025;-65
2021/05/20 09:37:46;;;;;;;32.33;19.48;;;;;;;;;;5032058;28;20027;-64
2021/05/20 09:40:12;;;;;;;34.77;19.47;;;;;;;;;;5031543;28;20034;-65
2021/05/20 09:42:37;;;;;;;28.27;18.55;;;;;;;;;;5032430;28;20264;-65
2021/05/20 09:45:06;;;;;;;30.03;19.37;;;;;;;;;;5031755;28;20071;-65
2021/05/20 09:47:31;;;;;;;27.83;17.52;;;;;;;;;;5032129;28;20363;-65
2021/05/20 09:50:07;;;;;;;26.45;16.75;;;;;;;;;;5031261;28;20541;-65
2021/05/20 09:52:32;;;;;;;27.90;17.27;;;;;;;;;;5031898;28;20059;-64
2021/05/20 09:54:58;;;;;;;25.50;16.70;;;;;;;;;;5031034;28;20390;-64
2021/05/20 09:57:24;;;;;;;26.55;16.15;;;;;;;;;;5030980;28;20057;-65
2021/05/20 10:00:08;;;;;;;25.90;16.10;;;;;;;;;;5031988;28;20022;-64
2021/05/20 10:02:34;;;;;;;24.60;12.98;;;;;;;;;;5032007;28;20025;-64
2021/05/20 10:05:18;;;;;;;21.60;14.27;;;;;;;;;;5031187;28;20071;-64
2021/05/20 10:07:43;;;;;;;23.95;12.45;;;;;;;;;;5031643;28;20025;-64
2021/05/20 10:10:08;;;;;;;18.47;11.33;;;;;;;;;;5030741;28;20128;-65
2021/05/20 10:12:34;;;;;;;19.33;11.52;;;;;;;;;;5031349;28;20742;-65
2021/05/20 10:14:59;;;;;;;21.27;12.23;;;;;;;;;;5031378;28;20033;-64
2021/05/20 10:17:25;;;;;;;18.02;10.00;;;;;;;;;;5031542;28;20097;-65
2021/05/20 10:19:50;;;;;;;16.48;9.50;;;;;;;;;;5031750;28;20113;-65
2021/05/20 10:22:15;;;;;;;18.02;9.43;;;;;;;;;;5031552;28;20025;-63
2021/05/20 10:24:41;;;;;;;18.57;10.17;;;;;;;;;;5031511;28;20049;-65
2021/05/20 10:27:09;;;;;;;12.70;6.55;;;;;;;;;;5031076;28;20775;-64
2021/05/20 10:29:35;;;;;;;17.35;9.13;;;;;;;;;;5031211;28;20485;-65
2021/05/20 10:32:01;;;;;;;15.80;10.55;;;;;;;;;;5030862;28;20160;-65
2021/05/20 10:34:27;;;;;;;18.63;9.32;;;;;;;;;;5031740;28;20483;-65
2021/05/20 10:37:04;;;;;;;14.00;7.20;;;;;;;;;;5030992;28;20298;-66
2021/05/20 10:39:29;;;;;;;13.32;8.40;;;;;;;;;;5030701;28;20164;-64
2021/05/20 10:41:56;;;;;;;15.13;9.57;;;;;;;;;;5030933;28;20496;-65
2021/05/20 10:44:21;;;;;;;15.40;9.50;;;;;;;;;;5030738;28;20022;-65
2021/05/20 10:47:02;;;;;;;17.35;8.75;;;;;;;;;;5030354;28;20151;-63
2021/05/20 10:49:46;;;;;;;14.45;9.90;;;;;;;;;;5030898;28;20037;-64
2021/05/20 10:52:29;;;;;;;13.20;8.80;;;;;;;;;;5030601;28;20143;-65
2021/05/20 10:54:58;;;;;;;16.80;8.73;;;;;;;;;;5030498;28;20117;-64
2021/05/20 10:57:43;;;;;;;16.10;10.38;;;;;;;;;;5030354;28;20018;-65
2021/05/20 11:00:28;;;;;;;14.18;9.30;;;;;;;;;;5029907;28;20515;-64
2021/05/20 11:02:54;;;;;;;14.40;8.48;;;;;;;;;;5029759;28;20021;-65
2021/05/20 11:05:38;;;;;;;13.18;9.15;;;;;;;;;;5031064;28;20022;-65
2021/05/20 11:08:03;;;;;;;12.95;8.55;;;;;;;;;;5025345;28;20536;-64
2021/05/20 11:10:34;;;;;;;17.27;9.85;;;;;;;;;;5031072;28;20108;-65
2021/05/20 11:12:59;;;;;;;13.00;6.80;;;;;;;;;;5030548;28;20048;-63
2021/05/20 11:15:25;;;;;;;10.15;7.05;;;;;;;;;;5029817;28;20053;-65
2021/05/20 11:17:50;;;;;;;6.63;4.50;;;;;;;;;;5027142;28;20614;-64
2021/05/20 11:20:24;;;;;;;13.10;6.65;;;;;;;;;;5021086;28;20017;-66
2021/05/20 11:23:08;;;;;;;12.63;7.60;;;;;;;;;;5027941;28;20124;-65
2021/05/20 11:25:33;;;;;;;11.20;7.15;;;;;;;;;;5024355;28;20075;-65
2021/05/20 11:28:01;;;;;;;9.43;6.95;;;;;;;;;;5028240;28;20025;-66
2021/05/20 11:30:26;;;;;;;11.50;6.00;;;;;;;;;;5027109;28;20148;-65
2021/05/20 11:32:54;;;;;;;9.07;5.95;;;;;;;;;;5012108;28;20557;-65
2021/05/20 11:35:36;;;;;;;15.13;6.70;;;;;;;;;;5030357;28;20088;-66
2021/05/20 11:38:01;;;;;;;15.85;6.72;;;;;;;;;;5029391;28;20025;-65
2021/05/20 11:40:28;;;;;;;14.25;6.10;;;;;;;;;;5029850;28;20543;-65
2021/05/20 11:42:53;;;;;;;17.65;7.03;;;;;;;;;;5029728;28;20026;-65
2021/05/20 11:45:22;;;;;;;11.30;6.63;;;;;;;;;;5030122;28;20083;-65
2021/05/20 11:47:54;;;;;;;6.15;4.50;;;;;;;;;;5029477;28;20021;-65
2021/05/20 11:50:21;;;;;;;6.82;4.18;;;;;;;;;;5030569;28;20025;-65
2021/05/20 11:52:46;;;;;;;12.45;4.47;;;;;;;;;;5029748;28;20025;-64
2021/05/20 11:55:11;;;;;;;10.47;6.00;;;;;;;;;;5029356;28;20374;-65
2021/05/20 11:57:37;;;;;;;7.85;3.80;;;;;;;;;;5029576;28;20104;-64
2021/05/20 12:00:03;;;;;;;8.73;4.13;;;;;;;;;;5030090;28;20025;-65
2021/05/20 12:02:32;;;;;;;12.13;5.82;;;;;;;;;;5030296;28;20272;-65
2021/05/20 12:04:58;;;;;;;11.95;6.85;;;;;;;;;;5029713;28;20022;-64
2021/05/20 12:07:24;;;;;;;18.83;7.47;;;;;;;;;;5029773;28;20028;-64
2021/05/20 12:09:50;;;;;;;12.95;6.55;;;;;;;;;;5029290;28;20032;-64
2021/05/20 12:12:17;;;;;;;14.48;6.03;;;;;;;;;;5029969;28;20017;-65
2021/05/20 12:14:42;;;;;;;8.45;5.00;;;;;;;;;;5029048;28;20018;-65
2021/05/20 12:17:15;;;;;;;10.13;4.75;;;;;;;;;;5028711;28;20103;-65
2021/05/20 12:19:42;;;;;;;8.18;5.22;;;;;;;;;;5029727;28;20482;-66
2021/05/20 12:22:09;;;;;;;10.30;4.75;;;;;;;;;;5029474;28;20349;-66
2021/05/20 12:24:38;;;;;;;6.53;4.35;;;;;;;;;;5029658;28;20021;-64
2021/05/20 12:27:05;;;;;;;8.52;4.57;;;;;;;;;;5029175;28;20022;-64
2021/05/20 12:29:30;;;;;;;9.45;4.78;;;;;;;;;;5029544;28;20017;-65
2021/05/20 12:31:55;;;;;;;8.75;5.05;;;;;;;;;;5029250;28;20359;-65
2021/05/20 12:34:22;;;;;;;11.77;5.03;;;;;;;;;;5028062;28;20024;-65
2021/05/20 12:36:47;;;;;;;8.52;4.22;;;;;;;;;;5029780;28;20033;-66
2021/05/20 12:39:13;;;;;;;8.77;4.47;;;;;;;;;;5032996;28;20076;-65
2021/05/20 12:41:38;;;;;;;8.27;4.38;;;;;;;;;;5033610;28;20276;-65
2021/05/20 12:44:16;;;;;;;9.23;4.57;;;;;;;;;;5032718;28;20071;-65
2021/05/20 12:46:42;;;;;;;6.22;2.95;;;;;;;;;;5031301;28;20025;-65
2021/05/20 12:49:07;;;;;;;7.75;4.75;;;;;;;;;;5032971;28;20013;-65
2021/05/20 12:51:33;;;;;;;7.72;4.15;;;;;;;;;;5033496;28;20436;-65
2021/05/20 12:54:08;;;;;;;13.70;5.82;;;;;;;;;;5032611;28;20089;-66
2021/05/20 12:56:34;;;;;;;9.68;5.40;;;;;;;;;;5032958;28;20128;-63
2021/05/20 12:59:04;;;;;;;7.32;4.07;;;;;;;;;;5032221;28;20061;-65
2021/05/20 13:01:34;;;;;;;8.73;4.63;;;;;;;;;;5030504;28;20029;-65
2021/05/20 13:04:05;;;;;;;5.20;2.53;;;;;;;;;;5024808;28;20486;-64
2021/05/20 13:06:31;;;;;;;4.25;2.28;;;;;;;;;;5029083;28;20418;-66
2021/05/20 13:09:05;;;;;;;8.03;4.97;;;;;;;;;;5033288;28;20097;-65
2021/05/20 13:11:32;;;;;;;9.88;4.22;;;;;;;;;;5032759;28;20347;-64
2021/05/20 13:17:12;;;;;;;6.07;3.75;;;;;;;;;;5013347;28;20037;-64
2021/05/20 13:22:24;;;;;;;5.05;3.65;;;;;;;;;;5012964;28;20080;-64
2021/05/20 13:24:54;;;;;;;7.43;2.67;;;;;;;;;;5012404;28;20026;-64
2021/05/20 13:27:20;;;;;;;4.70;3.45;;;;;;;;;;5012347;28;20026;-64
2021/05/20 13:29:53;;;;;;;4.78;2.60;;;;;;;;;;5011044;28;20037;-66
2021/05/20 13:34:46;;;;;;;3.35;1.98;;;;;;;;;;5012777;28;20034;-65
2021/05/20 13:37:12;;;;;;;11.07;2.55;;;;;;;;;;5012037;28;20022;-65
2021/05/20 13:39:37;;;;;;;5.60;2.70;;;;;;;;;;5012745;28;20414;-65
2021/05/20 13:42:02;;;;;;;7.10;2.63;;;;;;;;;;5013031;28;20474;-65
2021/05/20 13:44:27;;;;;;;2.05;1.13;;;;;;;;;;5012173;28;20465;-65
2021/05/20 13:46:52;;;;;;;4.13;2.55;;;;;;;;;;5011890;28;20029;-65
2021/05/20 13:49:19;;;;;;;5.67;2.30;;;;;;;;;;5010474;28;20276;-65
2021/05/20 13:51:47;;;;;;;3.30;2.03;;;;;;;;;;5011452;28;20272;-65
2021/05/20 13:54:12;;;;;;;3.95;2.00;;;;;;;;;;5011429;28;20109;-65
2021/05/20 13:56:37;;;;;;;6.00;3.17;;;;;;;;;;5010755;28;20457;-65
2021/05/20 13:59:03;;;;;;;9.60;3.73;;;;;;;;;;5011969;28;20080;-65
2021/05/20 14:01:30;;;;;;;8.88;2.95;;;;;;;;;;5011513;28;20264;-64
2021/05/20 14:04:09;;;;;;;5.05;2.38;;;;;;;;;;5011859;28;20048;-65
2021/05/20 14:06:34;;;;;;;5.78;2.00;;;;;;;;;;4992347;28;20026;-64
2021/05/20 14:08:59;;;;;;;5.23;1.73;;;;;;;;;;4999558;28;20065;-65
2021/05/20 14:11:24;;;;;;;5.03;1.50;;;;;;;;;;5012011;28;20363;-66
2021/05/20 14:13:50;;;;;;;4.63;1.70;;;;;;;;;;5011584;28;20026;-64
2021/05/20 14:16:15;;;;;;;3.00;1.95;;;;;;;;;;5028424;28;20713;-65
2021/05/20 14:18:40;;;;;;;2.13;1.60;;;;;;;;;;5031557;28;20032;-65
2021/05/20 14:21:05;;;;;;;4.10;1.70;;;;;;;;;;5032243;28;20598;-66
2021/05/20 14:23:30;;;;;;;2.97;1.45;;;;;;;;;;5031935;28;20031;-65
2021/05/20 14:25:55;;;;;;;4.20;1.70;;;;;;;;;;5030979;28;20026;-65
2021/05/20 14:28:21;;;;;;;2.87;1.67;;;;;;;;;;5031322;28;20256;-65
2021/05/20 14:30:46;;;;;;;3.03;1.63;;;;;;;;;;5031594;28;20334;-65
2021/05/20 14:33:12;;;;;;;14.15;1.67;;;;;;;;;;5031668;28;20355;-64
2021/05/20 14:35:37;;;;;;;3.70;0.93;;;;;;;;;;5031116;28;20022;-64
2021/05/20 14:38:02;;;;;;;3.55;1.05;;;;;;;;;;5031328;28;20021;-65
2021/05/20 14:40:27;;;;;;;2.93;1.33;;;;;;;;;;5031346;28;20035;-64
2021/05/20 14:42:52;;;;;;;4.43;1.77;;;;;;;;;;5030787;28;20276;-65
2021/05/20 14:45:17;;;;;;;4.10;1.50;;;;;;;;;;5031022;28;20030;-64
2021/05/20 14:47:45;;;;;;;1.80;1.10;;;;;;;;;;5030747;28;20265;-65